Time;durP1;ratioP1;P1;durP2;ratioP2;P2;SDS_P1;SDS_P2;PMS_P1;PMS_P2;Temp;Humidity;BMP_temperature;BMP_pressure;BME280_temperature;BME280_humidity;BME280_pressure;Samples;Min_cycle;Max_cycle;Signal;HPM_P1;HPM_P2
2022/12/29 05:34:23;;;;;;;2.33;0.90;;;12.40;1.00;;;;;;4836964;29;20457;-87
2022/12/29 05:36:48;;;;;;;2.07;0.73;;;12.30;99.90;;;;;;4840250;29;20447;-88
2022/12/29 05:39:19;;;;;;;3.27;1.10;;;12.30;1.00;;;;;;4847007;29;20225;-88
2022/12/29 05:41:45;;;;;;;1.43;0.90;;;12.20;99.90;;;;;;4842355;29;20205;-87
2022/12/29 05:44:21;;;;;;;1.87;0.70;;;12.20;99.90;;;;;;4847488;29;20452;-87
2022/12/29 05:46:46;;;;;;;2.37;1.13;;;12.20;99.90;;;;;;4849408;29;20272;-87
2022/12/29 05:49:12;;;;;;;1.60;0.80;;;12.20;99.90;;;;;;4852307;29;21078;-87
2022/12/29 05:51:38;;;;;;;1.93;0.93;;;12.20;99.90;;;;;;4845798;29;20185;-87
2022/12/29 05:54:03;;;;;;;3.33;0.70;;;12.20;99.90;;;;;;4842813;29;20204;-88
2022/12/29 05:56:29;;;;;;;2.33;0.80;;;12.10;99.90;;;;;;4848635;29;20200;-88
2022/12/29 05:58:54;;;;;;;4.07;1.10;;;12.10;99.90;;;;;;4843959;29;20261;-88
2022/12/29 06:01:20;;;;;;;1.50;1.00;;;12.10;99.90;;;;;;4854738;29;20250;-87
2022/12/29 06:03:46;;;;;;;1.73;0.80;;;12.10;99.90;;;;;;4838098;29;20568;-87
2022/12/29 06:06:11;;;;;;;1.93;0.90;;;12.10;99.90;;;;;;4848119;29;20208;-88
2022/12/29 06:08:48;;;;;;;2.50;0.80;;;12.10;99.90;;;;;;4844302;29;20210;-87
2022/12/29 06:11:14;;;;;;;1.30;0.80;;;12.00;99.90;;;;;;4849975;29;20591;-87
2022/12/29 06:13:39;;;;;;;2.20;0.80;;;12.00;99.90;;;;;;4838480;29;20438;-87
2022/12/29 06:16:06;;;;;;;3.50;0.90;;;12.00;99.90;;;;;;4842526;29;20268;-87
2022/12/29 06:18:31;;;;;;;3.10;0.90;;;12.00;99.90;;;;;;4838186;29;20245;-88
2022/12/29 06:21:01;;;;;;;3.20;0.90;;;11.90;99.90;;;;;;4858269;29;20470;-87
2022/12/29 06:23:27;;;;;;;1.40;0.97;;;11.90;99.90;;;;;;4852901;29;20250;-87
2022/12/29 06:25:52;;;;;;;1.83;0.70;;;12.00;99.90;;;;;;4844152;29;20998;-87
2022/12/29 06:28:18;;;;;;;4.60;0.70;;;12.00;99.90;;;;;;4838276;29;20479;-88
2022/12/29 06:30:45;;;;;;;2.67;1.10;;;12.00;99.90;;;;;;4850839;29;20319;-87
2022/12/29 06:33:11;;;;;;;1.97;1.13;;;12.10;99.90;;;;;;4852212;29;20228;-88
2022/12/29 06:35:45;;;;;;;2.80;0.97;;;12.10;91.90;;;;;;4840699;29;20445;-87
2022/12/29 06:38:11;;;;;;;3.63;1.03;;;12.10;23.60;;;;;;4835940;29;20489;-88
2022/12/29 06:40:36;;;;;;;1.73;0.90;;;12.10;1.00;;;;;;4844357;29;20473;-87
2022/12/29 06:43:02;;;;;;;3.77;0.97;;;12.20;1.00;;;;;;4838050;29;20189;-87
2022/12/29 06:45:27;;;;;;;8.20;1.00;;;12.20;1.00;;;;;;4836500;29;20658;-88
2022/12/29 06:47:53;;;;;;;2.87;1.13;;;12.20;1.00;;;;;;4842898;29;20220;-88
2022/12/29 06:50:19;;;;;;;3.10;1.20;;;12.20;1.00;;;;;;4842536;29;20561;-88
2022/12/29 06:52:44;;;;;;;4.53;1.00;;;12.20;1.00;;;;;;4850731;29;20337;-87
2022/12/29 06:55:21;;;;;;;3.83;1.30;;;12.20;1.00;;;;;;4843327;29;20181;-87
2022/12/29 06:57:46;;;;;;;5.73;0.97;;;12.20;1.00;;;;;;4842912;29;20221;-87
2022/12/29 07:00:16;;;;;;;5.13;1.10;;;12.30;1.00;;;;;;4835293;29;20479;-87
2022/12/29 07:02:45;;;;;;;1.83;0.80;;;12.20;1.00;;;;;;4843462;29;20195;-87
2022/12/29 07:05:13;;;;;;;3.97;1.33;;;12.30;1.00;;;;;;4838669;29;20429;-87
2022/12/29 07:07:46;;;;;;;2.43;0.97;;;12.20;1.00;;;;;;4857204;29;20474;-86
2022/12/29 07:10:12;;;;;;;4.97;1.60;;;12.20;1.00;;;;;;4854767;29;20448;-87
2022/12/29 07:12:38;;;;;;;1.50;0.70;;;12.20;1.00;;;;;;4832590;29;20442;-88
2022/12/29 07:15:04;;;;;;;2.43;0.70;;;12.20;1.00;;;;;;4833153;29;20479;-89
2022/12/29 07:17:29;;;;;;;5.53;1.30;;;12.10;1.00;;;;;;4843324;29;20193;-83
2022/12/29 07:20:11;;;;;;;2.90;0.93;;;12.10;1.00;;;;;;4840313;29;20213;-83
2022/12/29 07:22:41;;;;;;;3.80;0.93;;;12.10;1.00;;;;;;4846629;29;20269;-83
2022/12/29 07:25:07;;;;;;;4.93;1.13;;;12.10;99.90;;;;;;4843272;29;20441;-82
2022/12/29 07:27:33;;;;;;;5.60;1.47;;;12.10;99.90;;;;;;4865123;29;20851;-83
2022/12/29 07:29:58;;;;;;;3.13;0.90;;;12.00;99.90;;;;;;4837805;29;20454;-82
2022/12/29 07:32:26;;;;;;;3.53;1.20;;;12.00;99.90;;;;;;4856341;29;20411;-83
2022/12/29 07:34:52;;;;;;;2.87;1.20;;;12.00;99.90;;;;;;4836783;29;20221;-82
2022/12/29 07:37:18;;;;;;;4.00;1.10;;;12.00;99.90;;;;;;4844402;29;20476;-83
2022/12/29 07:39:43;;;;;;;4.80;0.90;;;12.00;99.90;;;;;;4837097;29;21170;-83
2022/12/29 07:42:09;;;;;;;6.53;1.20;;;12.10;99.90;;;;;;4842950;29;20537;-82
2022/12/29 07:44:36;;;;;;;8.07;1.50;;;12.10;99.90;;;;;;4844368;29;20199;-82
2022/12/29 07:47:02;;;;;;;2.13;0.83;;;12.00;99.90;;;;;;4836643;29;20299;-82
2022/12/29 07:49:27;;;;;;;3.93;1.17;;;12.10;99.90;;;;;;4841730;29;20472;-83
2022/12/29 07:51:56;;;;;;;8.93;1.57;;;12.10;99.90;;;;;;4839574;29;20692;-88
2022/12/29 07:54:24;;;;;;;4.17;1.03;;;12.10;99.90;;;;;;4841391;29;20275;-87
2022/12/29 07:56:50;;;;;;;4.97;1.40;;;12.10;99.90;;;;;;4836197;29;20452;-87
2022/12/29 07:59:28;;;;;;;4.17;1.27;;;12.10;99.90;;;;;;4821107;29;20443;-87
2022/12/29 08:02:03;;;;;;;4.30;1.67;;;12.10;99.90;;;;;;4837464;29;20440;-87
2022/12/29 08:07:51;;;;;;;5.93;1.07;;;12.20;99.90;;;;;;4834515;29;20454;-87
2022/12/29 08:10:25;;;;;;;7.90;2.20;;;12.10;99.90;;;;;;4840695;29;20449;-87
2022/12/29 08:12:51;;;;;;;6.73;1.47;;;12.10;99.90;;;;;;4831085;29;20527;-87
2022/12/29 08:15:16;;;;;;;4.83;1.10;;;12.20;99.90;;;;;;4826583;29;20493;-87
2022/12/29 08:17:42;;;;;;;4.17;1.30;;;12.10;99.90;;;;;;4833202;29;20530;-87
2022/12/29 08:20:11;;;;;;;3.83;1.00;;;12.00;99.90;;;;;;4837055;29;20745;-87
2022/12/29 08:22:36;;;;;;;4.47;1.03;;;11.80;1.00;;;;;;4838609;29;20201;-87
2022/12/29 08:25:10;;;;;;;8.80;1.80;;;11.60;3.90;;;;;;4832498;29;20519;-86
2022/12/29 08:27:39;;;;;;;5.70;1.57;;;11.50;99.90;;;;;;4828782;29;20510;-87
2022/12/29 08:30:05;;;;;;;7.70;1.50;;;11.50;99.90;;;;;;4830692;29;20469;-86
2022/12/29 08:32:48;;;;;;;3.80;2.20;;;11.40;99.90;;;;;;4837907;29;20942;-86
2022/12/29 08:35:17;;;;;;;5.57;1.30;;;11.40;99.90;;;;;;4822929;29;20415;-86
2022/12/29 08:37:43;;;;;;;7.60;1.60;;;11.50;99.90;;;;;;4830688;29;20485;-86
2022/12/29 08:40:14;;;;;;;6.73;2.00;;;11.50;1.00;;;;;;4840547;29;20434;-86
2022/12/29 08:42:52;;;;;;;4.23;1.30;;;11.70;99.90;;;;;;4833252;29;20353;-86
2022/12/29 08:45:20;;;;;;;9.50;1.97;;;11.80;99.90;;;;;;4833078;29;20557;-87
2022/12/29 08:47:49;;;;;;;2.73;1.10;;;11.90;52.50;;;;;;4836351;29;20828;-87
2022/12/29 08:50:20;;;;;;;4.83;1.40;;;12.00;1.00;;;;;;4822372;29;20435;-87
2022/12/29 08:53:01;;;;;;;6.20;1.57;;;12.10;1.00;;;;;;4821348;29;20943;-87
2022/12/29 08:55:44;;;;;;;;;;;;;;;;;;;;;
2022/12/29 08:58:20;;;;;;;7.23;1.10;;;12.80;99.90;;;;;;4829502;29;20473;-86
2022/12/29 09:00:46;;;;;;;5.13;1.20;;;13.20;99.90;;;;;;4838424;29;20504;-86
2022/12/29 09:03:38;;;;;;;6.70;1.43;;;13.30;40.80;;;;;;4844082;29;20974;-87
2022/12/29 09:06:37;;;;;;;6.43;1.50;;;13.40;1.00;;;;;;4824777;29;20196;-86
2022/12/29 09:09:21;;;;;;;10.13;1.13;;;13.70;1.00;;;;;;4834580;29;20451;-85
2022/12/29 09:11:54;;;;;;;5.57;1.50;;;14.10;1.00;;;;;;4816913;29;20514;-86
2022/12/29 09:14:34;;;;;;;3.60;1.20;;;14.40;1.00;;;;;;4844034;29;20441;-87
2022/12/29 09:20:44;;;;;;;;;;;;;;;;;;;;;
2022/12/29 09:23:59;;;;;;;8.53;1.67;;;14.70;1.00;;;;;;4844561;29;20969;-87
2022/12/29 09:27:15;;;;;;;5.93;1.30;;;15.10;1.00;;;;;;4844104;29;20471;-87
2022/12/29 09:30:17;;;;;;;8.10;1.23;;;15.10;99.90;;;;;;4844016;29;20523;-87
2022/12/29 09:32:57;;;;;;;4.90;1.40;;;15.00;99.90;;;;;;4844786;29;20455;-87
2022/12/29 09:35:25;;;;;;;6.77;1.57;;;14.80;99.90;;;;;;4846093;29;20455;-88
2022/12/29 09:38:20;;;;;;;;;;;;;;;;;;;;;
2022/12/29 09:41:03;;;;;;;9.43;1.17;;;14.50;99.90;;;;;;4837744;29;20442;-87
2022/12/29 09:44:26;;;;;;;6.03;1.30;;;14.60;99.90;;;;;;4840949;29;20468;-87
2022/12/29 09:53:35;;;;;;;4.70;1.20;;;15.00;99.90;;;;;;4836040;29;20445;-87
2022/12/29 09:56:08;;;;;;;4.80;2.07;;;15.20;99.90;;;;;;4828578;29;20489;-87
2022/12/29 09:59:02;;;;;;;7.70;1.47;;;15.30;99.90;;;;;;4835894;29;20458;-88
2022/12/29 10:02:04;;;;;;;4.10;1.30;;;15.20;99.90;;;;;;4838589;29;20500;-87
2022/12/29 10:04:37;;;;;;;6.37;1.20;;;15.20;99.90;;;;;;4842052;29;20480;-87
2022/12/29 10:07:30;;;;;;;6.93;1.50;;;15.10;99.90;;;;;;4842534;29;20532;-87
2022/12/29 10:10:39;;;;;;;8.67;1.40;;;15.00;99.90;;;;;;4840339;29;21201;-87
2022/12/29 10:13:24;;;;;;;4.83;1.10;;;15.00;99.90;;;;;;4834489;29;20438;-88
2022/12/29 10:15:59;;;;;;;5.83;1.60;;;15.00;99.90;;;;;;4842160;29;20456;-87
2022/12/29 10:18:48;;;;;;;9.07;2.10;;;15.00;99.90;;;;;;4857115;29;20450;-88
2022/12/29 10:21:56;;;;;;;4.33;1.90;;;15.10;99.90;;;;;;4840301;29;20494;-87
2022/12/29 10:24:31;;;;;;;5.17;1.20;;;15.20;99.90;;;;;;4837805;29;20433;-87
2022/12/29 10:26:59;;;;;;;3.97;1.40;;;15.30;99.90;;;;;;4839173;29;20481;-87
2022/12/29 10:29:33;;;;;;;4.63;1.43;;;15.30;99.90;;;;;;4829143;29;20461;-87
2022/12/29 10:32:20;;;;;;;8.23;1.53;;;15.40;99.90;;;;;;4837969;29;20435;-87
2022/12/29 10:34:54;;;;;;;6.40;1.67;;;15.30;99.90;;;;;;4837997;29;20445;-87
2022/12/29 10:37:48;;;;;;;6.30;1.70;;;15.30;99.90;;;;;;4833792;29;20437;-87
2022/12/29 10:40:25;;;;;;;3.97;1.57;;;15.30;99.90;;;;;;4834906;29;20483;-87
2022/12/29 10:43:05;;;;;;;6.93;1.73;;;15.20;99.90;;;;;;4852119;29;20458;-89
2022/12/29 10:45:32;;;;;;;8.13;1.53;;;15.10;99.90;;;;;;4851697;29;20533;-87
2022/12/29 10:48:06;;;;;;;7.07;1.50;;;15.00;99.90;;;;;;4848043;29;20474;-86
2022/12/29 10:50:33;;;;;;;8.23;2.07;;;15.00;99.90;;;;;;4835275;29;20485;-86
2022/12/29 10:53:02;;;;;;;3.67;1.83;;;15.00;99.90;;;;;;4832382;29;20426;-87
2022/12/29 10:55:47;;;;;;;8.47;1.83;;;14.90;99.90;;;;;;4840583;29;20519;-89
2022/12/29 10:58:27;;;;;;;6.77;1.57;;;14.90;99.90;;;;;;4840896;29;20465;-88
2022/12/29 11:00:54;;;;;;;5.50;1.53;;;14.90;99.90;;;;;;4838551;29;20840;-87
2022/12/29 11:03:44;;;;;;;7.37;1.33;;;14.90;99.90;;;;;;4834723;29;20481;-87
2022/12/29 11:06:15;;;;;;;8.33;1.77;;;14.90;99.90;;;;;;4835380;29;20536;-87
2022/12/29 11:09:37;;;;;;;8.20;1.93;;;14.90;99.90;;;;;;4842560;29;20835;-88
2022/12/29 11:12:27;;;;;;;10.47;1.50;;;14.80;99.90;;;;;;4833834;29;20442;-88
2022/12/29 11:15:14;;;;;;;4.17;1.63;;;14.80;99.90;;;;;;4842684;29;20631;-89
2022/12/29 11:21:31;;;;;;;10.93;2.33;;;14.80;99.90;;;;;;4839786;29;20818;-88
2022/12/29 11:24:08;;;;;;;6.13;1.70;;;14.90;99.90;;;;;;4840599;29;20428;-88
2022/12/29 11:26:34;;;;;;;5.97;2.10;;;14.90;99.90;;;;;;4834600;29;20904;-87
2022/12/29 11:29:17;;;;;;;5.70;1.87;;;14.80;99.90;;;;;;4839614;29;20457;-87
2022/12/29 11:31:55;;;;;;;8.70;1.30;;;14.60;99.90;;;;;;4841587;29;20214;-87
2022/12/29 11:34:23;;;;;;;9.50;1.70;;;14.50;99.90;;;;;;4839028;29;20498;-87
2022/12/29 11:36:53;;;;;;;5.20;1.23;;;14.40;99.90;;;;;;4832454;29;20433;-87
2022/12/29 11:39:39;;;;;;;4.30;1.43;;;14.20;99.90;;;;;;4831745;29;20873;-87
2022/12/29 11:42:18;;;;;;;8.93;1.63;;;14.00;99.90;;;;;;4836204;29;21262;-86
2022/12/29 11:44:54;;;;;;;5.43;1.50;;;13.80;99.90;;;;;;4829960;29;20422;-86
2022/12/29 11:47:26;;;;;;;5.23;1.37;;;13.70;99.90;;;;;;4823411;29;20488;-86
2022/12/29 11:50:03;;;;;;;6.00;1.70;;;13.60;99.90;;;;;;4836735;29;20476;-86
2022/12/29 11:52:37;;;;;;;5.07;1.40;;;13.60;99.90;;;;;;4838339;29;20485;-86
2022/12/29 11:55:18;;;;;;;9.83;1.50;;;13.60;99.90;;;;;;4829579;29;20609;-86
2022/12/29 11:57:53;;;;;;;6.57;1.40;;;13.50;99.90;;;;;;4837664;29;20443;-86
2022/12/29 12:00:28;;;;;;;7.23;1.77;;;13.50;99.90;;;;;;4832728;29;20453;-87
2022/12/29 12:03:20;;;;;;;6.57;2.00;;;13.40;99.90;;;;;;4830932;29;20480;-87
2022/12/29 12:05:54;;;;;;;6.53;2.40;;;13.40;99.90;;;;;;4823257;29;20455;-86
2022/12/29 12:08:41;;;;;;;3.73;1.50;;;13.40;99.90;;;;;;4837825;29;20892;-86
2022/12/29 12:11:45;;;;;;;6.43;1.67;;;13.30;99.90;;;;;;4833345;29;20440;-87
2022/12/29 12:14:40;;;;;;;9.07;2.33;;;13.20;99.90;;;;;;4840296;29;20483;-88
2022/12/29 12:17:21;;;;;;;6.73;1.20;;;13.10;99.90;;;;;;4841200;29;20809;-86
2022/12/29 12:19:59;;;;;;;7.07;1.50;;;13.10;99.90;;;;;;4837043;29;20603;-86
2022/12/29 12:22:52;;;;;;;4.90;1.20;;;13.10;99.90;;;;;;4830993;29;20454;-87
2022/12/29 12:25:29;;;;;;;6.43;1.73;;;13.00;99.90;;;;;;4823498;29;20418;-87
2022/12/29 12:28:28;;;;;;;5.53;1.30;;;12.90;99.90;;;;;;4839959;29;20473;-86
2022/12/29 12:31:05;;;;;;;10.77;1.97;;;13.00;99.90;;;;;;4841659;29;20876;-87
2022/12/29 12:33:50;;;;;;;7.07;1.63;;;13.00;99.90;;;;;;4843232;29;20437;-88
2022/12/29 12:36:40;;;;;;;6.70;1.40;;;13.10;99.90;;;;;;4843023;29;20436;-86
2022/12/29 12:39:44;;;;;;;4.83;1.77;;;13.10;99.90;;;;;;4840503;29;20545;-87
2022/12/29 12:42:34;;;;;;;7.60;2.10;;;13.10;99.90;;;;;;4844551;29;20448;-87
2022/12/29 12:45:30;;;;;;;6.40;2.33;;;13.10;99.90;;;;;;4844271;29;20521;-87
2022/12/29 12:48:14;;;;;;;4.57;1.37;;;13.10;99.90;;;;;;4855528;29;20859;-87
2022/12/29 12:50:48;;;;;;;6.67;1.37;;;13.00;99.90;;;;;;4824650;29;20426;-87
2022/12/29 12:53:35;;;;;;;8.27;1.77;;;13.00;99.90;;;;;;4828149;29;20441;-87
2022/12/29 12:56:15;;;;;;;4.57;1.60;;;13.00;99.90;;;;;;4835550;29;20963;-86
2022/12/29 12:59:06;;;;;;;4.60;1.30;;;13.10;99.90;;;;;;4858959;23;20607;-86
2022/12/29 13:01:49;;;;;;;5.17;1.40;;;13.20;99.90;;;;;;4841490;29;20447;-87
2022/12/29 13:04:49;;;;;;;6.97;1.70;;;13.40;99.90;;;;;;4837603;29;20451;-86
2022/12/29 13:07:28;;;;;;;3.30;1.93;;;13.40;99.90;;;;;;4834412;29;20477;-87
2022/12/29 13:10:39;;;;;;;6.17;1.40;;;13.40;99.90;;;;;;4810982;29;21020;-86
2022/12/29 13:13:29;;;;;;;11.43;3.73;;;13.60;99.90;;;;;;4820533;29;20860;-86
2022/12/29 13:16:19;;;;;;;4.17;1.23;;;14.10;99.90;;;;;;4816147;29;21028;-86
2022/12/29 13:19:15;;;;;;;4.13;1.23;;;14.30;99.90;;;;;;4815624;29;20454;-87
2022/12/29 13:21:47;;;;;;;5.60;1.20;;;14.20;99.90;;;;;;4809514;29;20811;-87
2022/12/29 13:24:22;;;;;;;8.47;1.43;;;14.00;99.90;;;;;;4817794;29;20454;-87
2022/12/29 13:27:00;;;;;;;6.40;1.23;;;13.90;99.90;;;;;;4823867;29;20485;-87
2022/12/29 13:29:43;;;;;;;3.93;0.87;;;13.80;99.90;;;;;;4805762;29;20879;-87
2022/12/29 13:32:22;;;;;;;7.40;1.83;;;13.60;99.90;;;;;;4817364;29;20445;-86
2022/12/29 13:34:56;;;;;;;3.00;1.03;;;13.60;99.90;;;;;;4816328;29;20955;-87
2022/12/29 13:37:34;;;;;;;5.07;1.30;;;13.70;99.90;;;;;;4816626;29;20442;-87
2022/12/29 13:40:09;;;;;;;3.90;1.17;;;13.70;99.90;;;;;;4821191;29;20537;-86
2022/12/29 13:42:47;;;;;;;3.47;1.20;;;13.70;99.90;;;;;;4819218;29;20972;-87
2022/12/29 13:45:22;;;;;;;5.10;1.37;;;13.60;99.90;;;;;;4807279;29;20456;-88
2022/12/29 13:48:08;;;;;;;6.17;1.73;;;13.50;99.90;;;;;;4818467;29;20474;-86
2022/12/29 13:50:38;;;;;;;4.20;1.27;;;13.40;99.90;;;;;;4815823;29;20544;-87
2022/12/29 13:53:18;;;;;;;4.73;1.03;;;13.30;99.90;;;;;;4824867;29;20439;-86
2022/12/29 13:56:12;;;;;;;;;;;;;;;;;;;;;
2022/12/29 13:58:49;;;;;;;2.37;1.80;;;13.00;99.90;;;;;;4808537;29;20471;-86
2022/12/29 14:01:35;;;;;;;6.53;1.97;;;12.90;99.90;;;;;;4825359;29;20437;-87
2022/12/29 14:04:21;;;;;;;6.50;1.57;;;12.80;99.90;;;;;;4813400;29;20452;-87
2022/12/29 14:07:05;;;;;;;3.70;0.90;;;12.80;99.90;;;;;;4822887;29;20560;-87
2022/12/29 14:09:57;;;;;;;14.27;1.17;;;12.70;99.90;;;;;;4817972;29;20463;-87
2022/12/29 14:12:32;;;;;;;5.47;1.87;;;12.70;99.90;;;;;;4812455;29;20532;-87
2022/12/29 14:15:40;;;;;;;7.17;1.20;;;12.60;99.90;;;;;;4823783;29;20954;-87
2022/12/29 14:18:45;;;;;;;7.20;1.30;;;12.50;99.90;;;;;;4830140;29;20471;-86
2022/12/29 14:21:22;;;;;;;9.60;1.80;;;12.40;99.90;;;;;;4823333;29;20477;-87
2022/12/29 14:23:50;;;;;;;6.60;1.37;;;12.40;99.90;;;;;;4835267;29;20455;-87
2022/12/29 14:26:29;;;;;;;5.80;1.67;;;12.30;99.90;;;;;;4814035;29;20428;-87
2022/12/29 14:29:14;;;;;;;3.90;1.17;;;12.30;99.90;;;;;;4815633;29;20980;-87
2022/12/29 14:31:50;;;;;;;8.53;1.70;;;12.30;99.90;;;;;;4807983;29;20434;-87
2022/12/29 14:34:39;;;;;;;8.33;3.13;;;12.20;99.90;;;;;;4819798;29;20461;-87
2022/12/29 14:37:23;;;;;;;5.27;0.93;;;12.20;99.90;;;;;;4806308;29;20487;-85
2022/12/29 14:39:49;;;;;;;11.33;1.87;;;12.20;99.90;;;;;;4814715;29;20476;-86
2022/12/29 14:42:22;;;;;;;5.90;2.07;;;12.20;99.90;;;;;;4815267;29;20451;-87
2022/12/29 14:44:55;;;;;;;11.43;2.20;;;12.20;99.90;;;;;;4812497;29;20191;-87
2022/12/29 14:47:20;;;;;;;5.80;1.20;;;12.20;99.90;;;;;;4822884;29;20969;-87
2022/12/29 14:49:51;;;;;;;15.73;2.10;;;12.10;99.90;;;;;;4822708;29;20514;-87
2022/12/29 14:52:23;;;;;;;10.00;1.53;;;12.10;99.90;;;;;;4818730;29;20581;-87
2022/12/29 14:54:52;;;;;;;5.33;1.40;;;12.10;99.90;;;;;;4810759;29;20443;-87
2022/12/29 14:57:39;;;;;;;9.30;1.53;;;12.10;99.90;;;;;;4806027;29;20451;-87
2022/12/29 15:00:24;;;;;;;3.37;1.00;;;12.10;99.90;;;;;;4822896;29;20493;-87
2022/12/29 15:03:07;;;;;;;5.63;1.57;;;12.00;99.90;;;;;;4822182;29;20450;-87
2022/12/29 15:05:46;;;;;;;7.83;1.57;;;11.90;99.90;;;;;;4819432;29;20465;-87
2022/12/29 15:08:16;;;;;;;3.53;1.40;;;11.90;99.90;;;;;;4815616;29;21037;-87
2022/12/29 15:10:53;;;;;;;4.97;1.43;;;11.80;99.90;;;;;;4821286;29;20443;-87
2022/12/29 15:13:31;;;;;;;7.03;1.80;;;11.80;99.90;;;;;;4822482;29;20455;-87
2022/12/29 15:15:57;;;;;;;5.37;1.80;;;11.80;99.90;;;;;;4818285;29;20870;-88
2022/12/29 15:18:29;;;;;;;6.10;1.70;;;11.80;99.90;;;;;;4827690;29;20482;-87
2022/12/29 15:21:06;;;;;;;5.10;1.57;;;11.80;99.90;;;;;;4838321;29;20197;-89
2022/12/29 15:23:34;;;;;;;8.10;1.83;;;11.70;99.90;;;;;;4824300;29;20465;-86
2022/12/29 15:26:10;;;;;;;2.37;1.10;;;11.70;99.90;;;;;;4825410;29;20443;-85
2022/12/29 15:28:43;;;;;;;3.27;1.40;;;11.70;99.90;;;;;;4828491;29;20474;-87
2022/12/29 15:31:12;;;;;;;6.00;1.73;;;11.70;99.90;;;;;;4824970;29;20470;-87
2022/12/29 15:33:44;;;;;;;9.00;2.67;;;11.70;99.90;;;;;;4822099;29;20443;-87
2022/12/29 15:36:27;;;;;;;3.30;1.50;;;11.70;99.90;;;;;;4809213;29;20447;-88
2022/12/29 15:38:53;;;;;;;7.70;1.70;;;11.60;99.90;;;;;;4811632;29;20466;-88
2022/12/29 15:42:00;;;;;;;6.43;3.30;;;11.60;99.90;;;;;;4823975;29;20427;-87
2022/12/29 15:44:35;;;;;;;22.27;2.70;;;11.60;99.90;;;;;;4818419;29;20439;-87
2022/12/29 15:47:30;;;;;;;12.80;2.10;;;11.50;99.90;;;;;;4821311;29;20475;-87
2022/12/29 15:50:25;;;;;;;7.13;2.97;;;11.50;99.90;;;;;;4823150;29;21020;-86
2022/12/29 15:52:51;;;;;;;3.20;1.70;;;11.50;99.90;;;;;;4824236;29;20957;-87
2022/12/29 15:55:27;;;;;;;6.70;1.90;;;11.40;99.90;;;;;;4819414;29;20436;-87
2022/12/29 15:58:03;;;;;;;8.37;1.87;;;11.30;99.90;;;;;;4816890;29;20196;-88
2022/12/29 16:00:33;;;;;;;9.60;2.00;;;11.30;99.90;;;;;;4814328;29;20459;-87
2022/12/29 16:03:04;;;;;;;7.60;1.73;;;11.20;99.90;;;;;;4819546;29;20439;-88
2022/12/29 16:05:38;;;;;;;8.50;2.30;;;11.10;99.90;;;;;;4824241;29;20446;-87
2022/12/29 16:08:20;;;;;;;9.63;1.93;;;11.10;99.90;;;;;;4816881;29;20498;-87
2022/12/29 16:10:53;;;;;;;12.27;2.37;;;11.00;99.90;;;;;;4808609;29;20427;-87
2022/12/29 16:13:32;;;;;;;4.07;1.30;;;11.00;99.90;;;;;;4816064;29;20440;-87
2022/12/29 16:16:08;;;;;;;6.40;1.60;;;10.90;99.90;;;;;;4814291;29;20857;-84
2022/12/29 16:18:36;;;;;;;12.03;2.50;;;10.90;99.90;;;;;;4837981;29;20462;-84
2022/12/29 16:21:05;;;;;;;7.00;2.40;;;10.90;99.90;;;;;;4847146;29;20917;-85
2022/12/29 16:23:32;;;;;;;6.43;1.80;;;10.90;99.90;;;;;;4824520;29;20944;-90
2022/12/29 16:26:22;;;;;;;11.23;3.63;;;10.90;99.90;;;;;;4820940;29;20486;-87
2022/12/29 16:28:56;;;;;;;8.30;2.50;;;10.90;99.90;;;;;;4819317;29;20565;-88
2022/12/29 16:31:46;;;;;;;5.33;1.77;;;10.90;99.90;;;;;;4815644;29;20444;-87
2022/12/29 16:34:41;;;;;;;11.03;2.13;;;10.90;99.90;;;;;;4818419;29;20428;-87
2022/12/29 16:37:31;;;;;;;5.47;1.97;;;10.90;99.90;;;;;;4814233;29;20434;-87
2022/12/29 16:40:22;;;;;;;9.80;2.90;;;10.90;99.90;;;;;;4817879;29;20557;-87
2022/12/29 16:42:49;;;;;;;8.13;3.07;;;10.90;99.90;;;;;;4811474;29;20522;-87
2022/12/29 16:45:23;;;;;;;7.60;2.33;;;10.90;99.90;;;;;;4821028;29;20782;-87
2022/12/29 16:48:06;;;;;;;12.60;2.07;;;10.90;99.90;;;;;;4822845;29;20488;-87
2022/12/29 16:50:40;;;;;;;8.93;2.07;;;10.90;99.90;;;;;;4814602;29;20427;-87
2022/12/29 16:53:28;;;;;;;7.87;2.17;;;10.90;99.90;;;;;;4820250;29;20449;-88
2022/12/29 16:55:57;;;;;;;8.63;1.60;;;10.90;99.90;;;;;;4832609;29;20531;-88
2022/12/29 16:58:28;;;;;;;13.87;2.63;;;10.90;99.90;;;;;;4824212;29;20542;-87
2022/12/29 17:01:02;;;;;;;12.27;2.40;;;10.90;99.90;;;;;;4826562;29;20581;-87
2022/12/29 17:03:42;;;;;;;8.73;2.63;;;10.90;99.90;;;;;;4816994;29;20529;-87
2022/12/29 17:06:20;;;;;;;19.03;4.80;;;10.90;99.90;;;;;;4834371;29;21173;-87
2022/12/29 17:08:47;;;;;;;10.43;3.40;;;10.90;99.90;;;;;;4828463;29;20475;-87
2022/12/29 17:14:40;;;;;;;6.70;2.40;;;10.90;99.90;;;;;;4822198;29;20847;-86
2022/12/29 17:17:34;;;;;;;7.23;2.30;;;10.90;1.00;;;;;;4818906;29;20453;-86
2022/12/29 17:20:23;;;;;;;6.03;2.57;;;10.90;1.00;;;;;;4820057;29;20494;-87
2022/12/29 17:22:52;;;;;;;8.93;2.60;;;10.80;1.00;;;;;;4825997;29;20875;-87
2022/12/29 17:25:23;;;;;;;12.40;2.93;;;10.80;1.00;;;;;;4821387;29;20986;-87
2022/12/29 17:28:15;;;;;;;13.50;2.60;;;10.80;1.00;;;;;;4822259;29;20858;-86
2022/12/29 17:30:51;;;;;;;6.70;2.50;;;10.80;1.00;;;;;;4823332;29;20506;-87
2022/12/29 17:33:19;;;;;;;9.20;2.80;;;10.70;1.00;;;;;;4817722;29;20951;-86
2022/12/29 17:35:47;;;;;;;9.27;3.27;;;10.60;1.00;;;;;;4824886;29;20518;-87
2022/12/29 17:38:27;;;;;;;5.10;2.37;;;10.60;1.00;;;;;;4819144;29;20472;-87
2022/12/29 17:40:53;;;;;;;13.30;3.03;;;10.50;16.30;;;;;;4820887;29;20439;-87
2022/12/29 17:43:19;;;;;;;12.33;2.33;;;10.50;59.00;;;;;;4824710;29;20863;-87
2022/12/29 17:45:54;;;;;;;9.90;2.80;;;10.40;96.70;;;;;;4825572;29;20486;-88
2022/12/29 17:48:22;;;;;;;10.30;2.73;;;10.40;99.90;;;;;;4827842;29;20472;-88
2022/12/29 17:50:53;;;;;;;10.97;2.63;;;10.30;75.50;;;;;;4846594;29;20454;-88
2022/12/29 17:56:56;;;;;;;16.47;3.03;;;10.10;99.50;;;;;;4821970;29;20450;-89
2022/12/29 17:59:21;;;;;;;8.23;2.60;;;10.00;99.90;;;;;;4823921;29;20487;-88
2022/12/29 18:01:50;;;;;;;15.23;2.90;;;9.90;99.90;;;;;;4816729;29;20277;-88
2022/12/29 18:04:32;;;;;;;9.60;2.33;;;9.80;99.90;;;;;;4816514;29;20197;-89
2022/12/29 18:07:09;;;;;;;10.17;3.43;;;9.80;99.90;;;;;;4818155;29;21046;-89
2022/12/29 18:09:38;;;;;;;12.37;2.20;;;9.70;99.90;;;;;;4817577;29;20501;-87
2022/12/29 18:12:13;;;;;;;8.80;2.60;;;9.70;99.90;;;;;;4818572;29;20976;-87
2022/12/29 18:14:56;;;;;;;17.13;4.40;;;9.70;99.90;;;;;;4821075;29;20465;-89
2022/12/29 18:17:31;;;;;;;6.73;3.03;;;9.70;99.90;;;;;;4822187;29;20469;-88
2022/12/29 18:19:57;;;;;;;6.10;2.03;;;9.70;99.90;;;;;;4820240;29;20982;-88
2022/12/29 18:22:37;;;;;;;11.40;3.63;;;9.70;99.90;;;;;;4823481;29;20441;-88
2022/12/29 18:25:49;;;;;;;12.30;4.37;;;9.60;99.90;;;;;;4820898;29;20193;-88
2022/12/29 18:28:18;;;;;;;14.80;5.40;;;9.60;1.00;;;;;;4834126;29;20849;-88
2022/12/29 18:31:14;;;;;;;12.30;4.10;;;9.60;1.00;;;;;;4822173;29;20450;-88
2022/12/29 18:33:57;;;;;;;14.17;2.53;;;9.60;1.00;;;;;;4819017;29;20526;-87
2022/12/29 18:36:58;;;;;;;11.97;2.60;;;9.50;1.00;;;;;;4825794;29;20482;-88
2022/12/29 18:39:36;;;;;;;7.03;3.80;;;9.50;1.00;;;;;;4822709;29;20506;-87
2022/12/29 18:42:13;;;;;;;8.50;2.40;;;9.50;1.00;;;;;;4820073;29;20450;-88
2022/12/29 18:47:47;;;;;;;9.10;2.03;;;9.50;1.00;;;;;;4828788;29;20549;-88
2022/12/29 18:50:20;;;;;;;5.80;2.07;;;9.50;1.00;;;;;;4818081;29;20452;-88
2022/12/29 18:52:48;;;;;;;4.00;1.63;;;9.50;1.00;;;;;;4829379;29;20458;-88
2022/12/29 18:55:37;;;;;;;6.30;2.00;;;9.50;99.90;;;;;;4826816;29;20457;-88
2022/12/29 18:58:16;;;;;;;7.53;2.13;;;9.40;99.90;;;;;;4824706;29;20451;-87
2022/12/29 19:00:45;;;;;;;8.07;2.80;;;9.40;99.90;;;;;;4823102;29;20455;-88
2022/12/29 19:03:16;;;;;;;4.97;2.03;;;9.30;99.90;;;;;;4817143;29;20541;-88
2022/12/29 19:05:47;;;;;;;11.13;2.37;;;9.30;1.00;;;;;;4823757;29;20450;-88
2022/12/29 19:08:16;;;;;;;4.07;1.50;;;9.20;1.00;;;;;;4819579;29;20572;-88
2022/12/29 19:10:43;;;;;;;9.00;2.07;;;9.20;1.00;;;;;;4816287;29;20474;-88
2022/12/29 19:13:30;;;;;;;7.90;1.50;;;9.10;1.00;;;;;;4823655;29;20438;-88
2022/12/29 19:16:43;;;;;;;6.83;2.00;;;9.10;1.00;;;;;;4839524;29;20457;-88
2022/12/29 19:19:15;;;;;;;8.23;3.80;;;9.00;1.00;;;;;;4801150;29;20553;-88
2022/12/29 19:21:44;;;;;;;11.57;2.07;;;9.00;1.00;;;;;;4816430;29;20456;-87
2022/12/29 19:24:12;;;;;;;9.27;2.07;;;8.90;1.00;;;;;;4827501;29;20479;-88
2022/12/29 19:26:56;;;;;;;8.07;1.92;;;8.90;1.00;;;;;;4820660;29;20612;-88
2022/12/29 19:30:02;;;;;;;9.70;2.37;;;8.90;1.00;;;;;;4812788;29;20209;-87
2022/12/29 19:32:44;;;;;;;7.50;2.13;;;8.90;1.00;;;;;;4831766;29;20442;-88
2022/12/29 19:35:21;;;;;;;13.10;2.60;;;8.80;1.00;;;;;;4817199;29;20444;-88
2022/12/29 19:38:10;;;;;;;10.60;2.43;;;8.80;1.00;;;;;;4820136;29;20457;-88
2022/12/29 19:40:47;;;;;;;9.37;2.60;;;8.80;15.90;;;;;;4813820;29;20481;-88
2022/12/29 19:43:13;;;;;;;15.73;3.47;;;8.80;54.30;;;;;;4815340;29;20471;-85
2022/12/29 19:45:43;;;;;;;16.17;2.70;;;8.70;95.50;;;;;;4817780;29;20439;-84